Time;durP1;ratioP1;P1;durP2;ratioP2;P2;SDS_P1;SDS_P2;PMS_P1;PMS_P2;Temp;Humidity;BMP_temperature;BMP_pressure;BME280_temperature;BME280_humidity;BME280_pressure;Samples;Min_cycle;Max_cycle;Signal;HPM_P1;HPM_P2
2022/02/19 00:01:54;;;;;;;;;;;;;;;-0.87;100.00;98753.83;1756313;81;20121;-69
2022/02/19 00:04:22;;;;;;;;;;;;;;;-0.88;100.00;98754.36;1761705;81;21884;-69
2022/02/19 00:06:54;;;;;;;;;;;;;;;-0.88;100.00;98747.62;1762282;81;20166;-69
2022/02/19 00:09:22;;;;;;;;;;;;;;;-0.87;100.00;98751.13;1729901;81;20122;-68
2022/02/19 00:11:51;;;;;;;;;;;;;;;-0.89;100.00;98746.54;1763107;81;20414;-69
2022/02/19 00:14:23;;;;;;;;;;;;;;;-0.89;100.00;98749.23;1730386;81;20070;-69
2022/02/19 00:17:08;;;;;;;;;;;;;;;-0.89;100.00;98742.50;1758393;81;21274;-69
2022/02/19 00:19:25;;;;;;;;;;;;;;;-0.88;100.00;98752.20;1757873;81;20102;-68
2022/02/19 00:21:55;;;;;;;;;;;;;;;-0.87;100.00;98748.44;1730176;81;20083;-68
2022/02/19 00:24:23;;;;;;;;;;;;;;;-0.88;100.00;98744.93;1762156;81;20446;-68
2022/02/19 00:27:02;;;;;;;;;;;;;;;-0.88;100.00;98730.11;1763156;81;20110;-68
2022/02/19 00:29:24;;;;;;;;;;;;;;;-0.86;100.00;98732.01;1757456;81;21227;-68
2022/02/19 00:34:26;;;;;;;;;;;;;;;-0.78;100.00;98726.66;1769991;80;20093;-68
2022/02/19 00:36:57;;;;;;;;;;;;;;;-0.75;100.00;98710.78;1742743;82;20178;-68
2022/02/19 00:39:29;;;;;;;;;;;;;;;-0.74;100.00;98707.55;1743497;82;20121;-68
2022/02/19 00:42:02;;;;;;;;;;;;;;;-0.73;100.00;98697.85;1695756;83;20101;-68
2022/02/19 00:44:34;;;;;;;;;;;;;;;-0.73;100.00;98703.78;1725579;83;20085;-67
2022/02/19 00:46:59;;;;;;;;;;;;;;;-0.72;100.00;98698.13;1724933;83;20125;-68
2022/02/19 00:49:29;;;;;;;;;;;;;;;-0.69;100.00;98692.75;1784548;80;20080;-68
2022/02/19 00:51:55;;;;;;;;;;;;;;;-0.65;100.00;98690.34;1788520;80;20466;-70
2022/02/19 00:54:26;;;;;;;;;;;;;;;-0.64;100.00;98691.42;1759414;80;20108;-68
2022/02/19 00:57:01;;;;;;;;;;;;;;;-0.62;100.00;98683.07;1787469;80;20108;-68
2022/02/19 00:59:31;;;;;;;;;;;;;;;-0.62;100.00;98682.53;1786399;80;20131;-67
2022/02/19 01:01:55;;;;;;;;;;;;;;;-0.63;100.00;98680.91;1787788;80;20072;-70
2022/02/19 01:04:23;;;;;;;;;;;;;;;-0.62;100.00;98689.27;1769118;80;20427;-69
2022/02/19 01:06:52;;;;;;;;;;;;;;;-0.63;100.00;98686.30;1788393;80;21889;-70
2022/02/19 01:09:21;;;;;;;;;;;;;;;-0.62;100.00;98674.98;1788209;80;20104;-69
2022/02/19 01:11:51;;;;;;;;;;;;;;;-0.60;100.00;98666.09;1753859;80;20395;-69
2022/02/19 01:14:19;;;;;;;;;;;;;;;-0.60;100.00;98665.56;1788286;80;20160;-71
2022/02/19 01:16:46;;;;;;;;;;;;;;;-0.58;100.00;98669.34;1788250;80;20160;-71
2022/02/19 01:19:14;;;;;;;;;;;;;;;-0.57;100.00;98665.53;1788213;80;21514;-71
2022/02/19 01:21:42;;;;;;;;;;;;;;;-0.58;100.00;98655.86;1788079;80;20169;-71
2022/02/19 01:24:09;;;;;;;;;;;;;;;-0.59;100.00;98648.84;1788060;80;20434;-69
2022/02/19 01:26:36;;;;;;;;;;;;;;;-0.61;100.00;98649.65;1788216;80;20116;-69
2022/02/19 01:29:05;;;;;;;;;;;;;;;-0.62;100.00;98644.80;1788277;80;20087;-69
2022/02/19 01:31:39;;;;;;;;;;;;;;;-0.62;100.00;98643.98;1788232;80;21557;-70
2022/02/19 01:34:06;;;;;;;;;;;;;;;-0.63;100.00;98639.13;1787415;80;20104;-70
2022/02/19 01:36:47;;;;;;;;;;;;;;;-0.63;100.00;98632.39;1758925;80;20164;-70
2022/02/19 01:39:14;;;;;;;;;;;;;;;-0.62;100.00;98625.92;1759525;80;20490;-68
2022/02/19 01:41:48;;;;;;;;;;;;;;;-0.63;100.00;98622.15;1760057;80;20112;-68
2022/02/19 01:44:20;;;;;;;;;;;;;;;-0.62;100.00;98618.38;1787972;80;21137;-68
2022/02/19 01:46:45;;;;;;;;;;;;;;;-0.62;100.00;98611.64;1787933;80;20081;-68
2022/02/19 01:49:19;;;;;;;;;;;;;;;-0.61;100.00;98624.05;1759637;80;20132;-69
2022/02/19 01:51:47;;;;;;;;;;;;;;;-0.60;100.00;98618.92;1787852;80;20151;-70
2022/02/19 01:54:17;;;;;;;;;;;;;;;-0.59;100.00;98614.61;1788071;80;20140;-70
2022/02/19 01:56:56;;;;;;;;;;;;;;;-0.57;100.00;98614.32;1729804;80;20527;-70
2022/02/19 01:59:28;;;;;;;;;;;;;;;-0.56;100.00;98610.55;1786225;80;20131;-70
2022/02/19 02:02:00;;;;;;;;;;;;;;;-0.52;100.00;98611.63;1786202;80;20108;-70
2022/02/19 02:04:41;;;;;;;;;;;;;;;-0.50;100.00;98609.48;1757129;80;20100;-68
2022/02/19 02:07:11;;;;;;;;;;;;;;;-0.45;100.00;98609.49;1786924;80;20410;-68
2022/02/19 02:09:43;;;;;;;;;;;;;;;-0.42;100.00;98614.36;1761511;80;21124;-68
2022/02/19 02:12:18;;;;;;;;;;;;;;;-0.39;100.00;98611.13;1779644;80;20120;-67
2022/02/19 02:14:46;;;;;;;;;;;;;;;-0.36;100.00;98611.40;1786356;80;20143;-68
2022/02/19 02:17:15;;;;;;;;;;;;;;;-0.33;100.00;98607.36;1787360;80;20154;-68
2022/02/19 02:19:45;;;;;;;;;;;;;;;-0.32;100.00;98595.50;1788216;80;20116;-68
2022/02/19 02:22:20;;;;;;;;;;;;;;;-0.30;100.00;98598.73;1759609;80;20096;-68
2022/02/19 02:24:53;;;;;;;;;;;;;;;-0.28;100.00;98589.84;1787866;80;20360;-68
2022/02/19 02:27:23;;;;;;;;;;;;;;;-0.25;100.00;98588.49;1785970;80;20097;-68
2022/02/19 02:29:55;;;;;;;;;;;;;;;-0.21;100.00;98584.18;1788429;80;20088;-72
2022/02/19 02:32:23;;;;;;;;;;;;;;;-0.19;100.00;98585.53;1759130;80;20089;-70
2022/02/19 02:34:56;;;;;;;;;;;;;;;-0.17;100.00;98582.03;1759968;80;21796;-70
2022/02/19 02:37:28;;;;;;;;;;;;;;;-0.13;100.00;98568.27;1788137;80;20451;-70
2022/02/19 02:39:57;;;;;;;;;;;;;;;-0.11;99.92;98567.46;1788202;80;20076;-70
2022/02/19 02:42:33;;;;;;;;;;;;;;;-0.05;98.95;98567.73;1758401;80;20080;-70
2022/02/19 02:45:00;;;;;;;;;;;;;;;0.02;98.31;98570.67;1787908;80;20408;-70
2022/02/19 02:47:33;;;;;;;;;;;;;;;0.09;97.60;98582.00;1758555;80;20112;-70
2022/02/19 02:50:08;;;;;;;;;;;;;;;0.14;97.60;98571.20;1788414;80;20108;-69
2022/02/19 02:52:34;;;;;;;;;;;;;;;0.18;97.46;98568.23;1760338;80;20119;-69
2022/02/19 02:55:19;;;;;;;;;;;;;;;0.20;96.48;98557.43;1788070;80;20084;-69
2022/02/19 02:57:37;;;;;;;;;;;;;;;0.24;96.35;98565.80;1780300;80;20088;-69
2022/02/19 03:00:12;;;;;;;;;;;;;;;0.27;95.80;98564.71;1782705;80;21131;-68
2022/02/19 03:02:38;;;;;;;;;;;;;;;0.30;95.28;98565.52;1788228;80;20096;-68
2022/02/19 03:05:14;;;;;;;;;;;;;;;0.34;95.30;98563.08;1788415;80;20092;-67
2022/02/19 03:07:42;;;;;;;;;;;;;;;0.36;94.63;98569.55;1787189;80;20112;-68
2022/02/19 03:10:19;;;;;;;;;;;;;;;0.39;94.57;98566.31;1787685;80;20080;-69
2022/02/19 03:12:45;;;;;;;;;;;;;;;0.43;93.99;98569.55;1787035;80;21171;-68
2022/02/19 03:15:24;;;;;;;;;;;;;;;0.47;93.74;98570.62;1787502;80;20081;-68
2022/02/19 03:17:54;;;;;;;;;;;;;;;0.50;93.28;98553.86;1783176;80;20111;-69
2022/02/19 03:20:22;;;;;;;;;;;;;;;0.53;92.58;98541.16;1788538;80;20136;-69
2022/02/19 03:22:50;;;;;;;;;;;;;;;0.57;92.06;98531.43;1759259;80;20080;-69
2022/02/19 03:25:22;;;;;;;;;;;;;;;0.61;92.37;98534.36;1788189;80;21158;-68
2022/02/19 03:27:51;;;;;;;;;;;;;;;0.65;92.33;98546.23;1787232;80;20080;-68
2022/02/19 03:30:23;;;;;;;;;;;;;;;0.66;91.44;98539.20;1781283;80;20119;-69
2022/02/19 03:32:56;;;;;;;;;;;;;;;0.70;91.27;98545.41;1758682;80;20084;-69
2022/02/19 03:35:23;;;;;;;;;;;;;;;0.73;91.22;98541.61;1787891;80;20092;-68
2022/02/19 03:37:54;;;;;;;;;;;;;;;0.77;91.09;98551.33;1788310;80;20589;-68
2022/02/19 03:40:30;;;;;;;;;;;;;;;0.78;89.88;98540.78;1785324;80;20116;-68
2022/02/19 03:43:13;;;;;;;;;;;;;;;0.84;89.46;98532.92;1787862;80;20096;-69
2022/02/19 03:45:30;;;;;;;;;;;;;;;0.86;89.71;98522.66;1780131;80;20072;-69
2022/02/19 03:48:00;;;;;;;;;;;;;;;0.89;88.86;98528.85;1756257;80;20467;-69
2022/02/19 03:50:26;;;;;;;;;;;;;;;0.92;87.78;98526.95;1788471;80;21737;-69
2022/02/19 03:52:55;;;;;;;;;;;;;;;0.96;87.88;98524.77;1788168;80;20116;-68
2022/02/19 03:55:28;;;;;;;;;;;;;;;1.01;87.31;98522.58;1787976;80;20120;-69
2022/02/19 03:57:57;;;;;;;;;;;;;;;1.04;86.39;98519.32;1786037;80;20084;-69
2022/02/19 04:00:28;;;;;;;;;;;;;;;1.08;85.20;98516.33;1790338;80;20506;-68
2022/02/19 04:02:56;;;;;;;;;;;;;;;1.12;85.60;98489.55;1790500;80;21157;-68
2022/02/19 04:05:31;;;;;;;;;;;;;;;1.11;85.35;98488.73;1764593;80;20096;-69
2022/02/19 04:08:01;;;;;;;;;;;;;;;1.14;85.21;98482.78;1786569;80;20125;-70
2022/02/19 04:10:37;;;;;;;;;;;;;;;1.15;85.50;98498.45;1791694;80;20171;-70
2022/02/19 04:13:06;;;;;;;;;;;;;;;1.14;85.14;98497.64;1791173;80;20143;-69
2022/02/19 04:18:20;;;;;;;;;;;;;;;1.20;84.17;98503.25;1757193;80;20443;-70
2022/02/19 04:20:54;;;;;;;;;;;;;;;1.24;84.62;98496.74;1763523;80;20072;-69
2022/02/19 04:23:19;;;;;;;;;;;;;;;1.23;83.87;98486.47;1790568;80;20092;-69
2022/02/19 04:25:49;;;;;;;;;;;;;;;1.22;84.04;98468.64;1791473;80;20449;-69
2022/02/19 04:28:21;;;;;;;;;;;;;;;1.24;84.17;98464.30;1799301;78;21120;-69
2022/02/19 04:30:51;;;;;;;;;;;;;;;1.24;83.55;98457.00;1816928;78;20113;-70
2022/02/19 04:33:27;;;;;;;;;;;;;;;1.26;83.40;98472.39;1820930;78;20117;-69
2022/02/19 04:35:52;;;;;;;;;;;;;;;1.30;82.75;98464.53;1823350;78;20086;-70
2022/02/19 04:38:24;;;;;;;;;;;;;;;1.32;82.50;98467.22;1795966;78;20090;-68
2022/02/19 04:40:50;;;;;;;;;;;;;;;1.37;81.31;98460.16;1822619;78;21130;-69
2022/02/19 04:43:21;;;;;;;;;;;;;;;1.40;81.95;98459.05;1823348;78;20089;-70
2022/02/19 04:45:53;;;;;;;;;;;;;;;1.42;82.39;98453.36;1797301;78;20112;-68
2022/02/19 04:48:22;;;;;;;;;;;;;;;1.41;81.30;98457.95;1790981;80;22032;-69
2022/02/19 04:50:52;;;;;;;;;;;;;;;1.42;80.54;98443.34;1791081;80;20121;-70
2022/02/19 04:53:21;;;;;;;;;;;;;;;1.47;80.49;98454.13;1790478;80;21138;-68
2022/02/19 04:55:53;;;;;;;;;;;;;;;1.49;80.26;98443.83;1791131;80;20455;-69
2022/02/19 04:58:23;;;;;;;;;;;;;;;1.50;80.15;98455.45;1790471;80;20113;-69
2022/02/19 05:00:52;;;;;;;;;;;;;;;1.51;80.00;98453.02;1762209;80;20094;-69
2022/02/19 05:03:22;;;;;;;;;;;;;;;1.51;79.22;98444.90;1791356;80;20066;-69
2022/02/19 05:06:03;;;;;;;;;;;;;;;1.53;79.18;98437.31;1769116;80;21538;-69
2022/02/19 05:08:30;;;;;;;;;;;;;;;1.55;79.25;98430.53;1791114;80;20078;-69
2022/02/19 05:11:09;;;;;;;;;;;;;;;1.54;79.44;98450.55;1781317;80;20078;-69
2022/02/19 05:13:38;;;;;;;;;;;;;;;1.55;78.84;98445.95;1761628;80;20126;-69
2022/02/19 05:16:12;;;;;;;;;;;;;;;1.56;78.92;98447.56;1791041;79;20098;-68
2022/02/19 05:18:49;;;;;;;;;;;;;;;1.57;79.00;98458.64;1763978;80;22198;-69
2022/02/19 05:21:23;;;;;;;;;;;;;;;1.56;79.10;98442.16;1791070;80;20114;-69
2022/02/19 05:23:54;;;;;;;;;;;;;;;1.57;78.58;98460.80;1789420;80;20124;-69
2022/02/19 05:26:26;;;;;;;;;;;;;;;1.57;78.89;98436.46;1784597;79;20547;-70
2022/02/19 05:29:00;;;;;;;;;;;;;;;1.57;79.68;98435.11;1762291;80;21252;-69
2022/02/19 05:31:28;;;;;;;;;;;;;;;1.51;81.20;98422.72;1789764;80;21038;-70
2022/02/19 05:34:14;;;;;;;;;;;;;;;1.44;82.41;98432.25;1788660;80;20254;-70
2022/02/19 05:36:42;;;;;;;;;;;;;;;1.37;83.74;98419.59;1788852;79;20420;-69
2022/02/19 05:39:09;;;;;;;;;;;;;;;1.30;84.53;98420.72;1790710;80;20158;-69
2022/02/19 05:41:36;;;;;;;;;;;;;;;1.25;85.30;98397.78;1790225;80;20156;-70
2022/02/19 05:44:07;;;;;;;;;;;;;;;1.22;85.48;98382.67;1790093;80;21037;-70
2022/02/19 05:46:35;;;;;;;;;;;;;;;1.25;85.68;98372.09;1786674;80;20490;-70
2022/02/19 05:49:08;;;;;;;;;;;;;;;1.31;84.89;98352.03;1792811;79;20114;-71
2022/02/19 05:51:38;;;;;;;;;;;;;;;1.42;84.39;98342.48;1759642;79;20113;-69
2022/02/19 05:54:11;;;;;;;;;;;;;;;1.51;83.84;98338.06;1792073;80;20090;-69
2022/02/19 05:56:39;;;;;;;;;;;;;;;1.58;82.76;98337.98;1788901;80;21104;-70
2022/02/19 05:59:06;;;;;;;;;;;;;;;1.63;81.71;98345.25;1789615;80;20092;-70
2022/02/19 06:01:34;;;;;;;;;;;;;;;1.69;80.95;98364.39;1789241;80;20078;-69
2022/02/19 06:04:04;;;;;;;;;;;;;;;1.74;80.08;98379.19;1791832;80;20435;-69
2022/02/19 06:06:47;;;;;;;;;;;;;;;1.78;79.48;98396.47;1790863;80;20118;-70
2022/02/19 06:09:09;;;;;;;;;;;;;;;1.84;79.10;98394.52;1790416;80;22432;-70
2022/02/19 06:11:42;;;;;;;;;;;;;;;1.86;78.04;98366.08;1789404;80;20407;-69
2022/02/19 06:14:09;;;;;;;;;;;;;;;1.89;77.73;98383.09;1787188;80;20092;-69
2022/02/19 06:16:38;;;;;;;;;;;;;;;1.93;77.55;98364.38;1791067;80;20096;-69
2022/02/19 06:19:08;;;;;;;;;;;;;;;1.96;76.53;98364.61;1790334;80;20088;-70
2022/02/19 06:21:38;;;;;;;;;;;;;;;2.01;75.75;98375.92;1762143;80;20116;-70
2022/02/19 06:24:07;;;;;;;;;;;;;;;2.06;76.33;98380.48;1764310;80;20439;-69
2022/02/19 06:26:37;;;;;;;;;;;;;;;2.10;75.72;98394.50;1791233;80;20172;-68
2022/02/19 06:29:18;;;;;;;;;;;;;;;2.12;75.45;98394.22;1726682;80;20112;-68
2022/02/19 06:31:52;;;;;;;;;;;;;;;2.13;74.37;98396.63;1789940;80;20108;-69
2022/02/19 06:34:19;;;;;;;;;;;;;;;2.17;74.61;98401.73;1764434;80;20068;-69
2022/02/19 06:36:49;;;;;;;;;;;;;;;2.19;74.30;98379.78;1791143;80;20096;-69
2022/02/19 06:39:20;;;;;;;;;;;;;;;2.19;74.22;98386.00;1789958;80;20108;-68
2022/02/19 06:41:48;;;;;;;;;;;;;;;2.21;73.82;98377.05;1790571;80;20092;-68
2022/02/19 06:44:29;;;;;;;;;;;;;;;2.25;74.07;98383.49;1790013;80;20172;-68
2022/02/19 06:47:04;;;;;;;;;;;;;;;2.27;73.54;98392.14;1790703;80;22308;-68
2022/02/19 06:49:36;;;;;;;;;;;;;;;2.30;73.73;98371.80;1784480;80;20112;-69
2022/02/19 06:52:02;;;;;;;;;;;;;;;2.34;73.07;98356.55;1790017;80;20115;-69
2022/02/19 06:54:28;;;;;;;;;;;;;;;2.39;72.88;98367.31;1791038;79;20113;-70
2022/02/19 06:57:00;;;;;;;;;;;;;;;2.45;73.48;98347.74;1787305;80;20439;-70
2022/02/19 06:59:24;;;;;;;;;;;;;;;2.50;72.55;98336.84;1776650;80;21797;-71
2022/02/19 07:01:53;;;;;;;;;;;;;;;2.54;72.19;98329.19;1758604;80;20108;-70
2022/02/19 07:04:27;;;;;;;;;;;;;;;2.59;72.28;98312.86;1763489;80;20132;-70
2022/02/19 07:07:04;;;;;;;;;;;;;;;2.63;72.09;98305.75;1766434;80;20090;-70
2022/02/19 07:09:41;;;;;;;;;;;;;;;2.69;71.60;98340.91;1791277;80;20113;-68
2022/02/19 07:12:10;;;;;;;;;;;;;;;2.71;71.37;98333.29;1764925;80;20068;-68
2022/02/19 07:14:42;;;;;;;;;;;;;;;2.74;71.15;98305.60;1791241;80;20115;-68
2022/02/19 07:17:09;;;;;;;;;;;;;;;2.81;71.30;98306.03;1791293;80;20095;-68
2022/02/19 07:19:44;;;;;;;;;;;;;;;2.91;71.42;98316.14;1759589;80;40402;-68
2022/02/19 07:22:12;;;;;;;;;;;;;;;3.05;71.34;98304.54;1790984;80;20088;-68
2022/02/19 07:24:45;;;;;;;;;;;;;;;3.09;70.52;98329.41;1764645;80;20096;-68
2022/02/19 07:27:17;;;;;;;;;;;;;;;3.09;70.97;98316.41;1764924;80;20108;-67
2022/02/19 07:29:42;;;;;;;;;;;;;;;3.03;70.37;98329.79;1790712;80;20078;-68
2022/02/19 07:32:09;;;;;;;;;;;;;;;2.97;70.47;98314.16;1791151;80;20140;-68
2022/02/19 07:34:41;;;;;;;;;;;;;;;2.90;70.80;98327.28;1764138;80;20391;-67
2022/02/19 07:37:07;;;;;;;;;;;;;;;2.85;71.10;98316.55;1791241;80;21160;-68
2022/02/19 07:39:43;;;;;;;;;;;;;;;2.82;71.50;98290.03;1791157;80;20160;-68
2022/02/19 07:42:12;;;;;;;;;;;;;;;2.82;72.03;98271.05;1790679;80;20116;-67
2022/02/19 07:45:01;;;;;;;;;;;;;;;2.81;72.21;98303.33;1764901;80;20107;-68
2022/02/19 07:47:41;;;;;;;;;;;;;;;2.81;72.21;98337.20;1729111;83;20136;-68
2022/02/19 07:58:55;;;;;;;;;;;;;;;2.67;73.64;98354.75;1791637;80;20100;-68
2022/02/19 08:01:22;;;;;;;;;;;;;;;2.63;74.12;98347.75;1767965;80;20129;-68
2022/02/19 08:03:55;;;;;;;;;;;;;;;2.63;74.00;98363.20;1731602;83;21153;-68
2022/02/19 08:06:23;;;;;;;;;;;;;;;2.61;73.87;98363.50;1732015;83;20084;-68
2022/02/19 08:08:54;;;;;;;;;;;;;;;2.61;74.50;98364.85;1731599;83;20432;-68
2022/02/19 08:11:27;;;;;;;;;;;;;;;2.60;73.84;98341.56;1732519;82;20624;-68
2022/02/19 08:13:56;;;;;;;;;;;;;;;2.62;74.57;98362.95;1707774;83;20100;-68
2022/02/19 08:16:29;;;;;;;;;;;;;;;2.61;74.69;98366.20;1730653;83;20401;-68
2022/02/19 08:18:54;;;;;;;;;;;;;;;2.61;74.71;98358.62;1731606;83;20085;-68
2022/02/19 08:21:25;;;;;;;;;;;;;;;2.63;74.97;98359.14;1732474;83;20097;-68
2022/02/19 08:23:49;;;;;;;;;;;;;;;2.67;74.72;98349.88;1732001;83;20085;-68
2022/02/19 08:26:22;;;;;;;;;;;;;;;2.70;74.68;98340.61;1732495;83;20127;-68
2022/02/19 08:28:47;;;;;;;;;;;;;;;2.73;74.45;98333.25;1732356;82;21147;-68
2022/02/19 08:31:17;;;;;;;;;;;;;;;2.77;74.45;98318.02;1731583;83;20119;-68
2022/02/19 08:33:44;;;;;;;;;;;;;;;2.79;74.55;98351.59;1732367;81;20116;-68
2022/02/19 08:36:13;;;;;;;;;;;;;;;2.81;74.39;98349.40;1752077;81;20104;-67
2022/02/19 08:38:45;;;;;;;;;;;;;;;2.82;74.60;98353.72;1761643;80;20166;-70
2022/02/19 08:41:18;;;;;;;;;;;;;;;2.83;74.20;98375.66;1751641;80;20548;-69
2022/02/19 08:43:48;;;;;;;;;;;;;;;2.84;74.33;98354.23;1730944;83;20452;-69
2022/02/19 08:46:14;;;;;;;;;;;;;;;2.84;74.21;98318.45;1706604;83;20100;-69
2022/02/19 08:48:46;;;;;;;;;;;;;;;2.86;74.41;98330.35;1706416;83;20088;-68
2022/02/19 08:51:16;;;;;;;;;;;;;;;2.89;74.70;98347.35;1730468;83;20133;-69
2022/02/19 08:53:45;;;;;;;;;;;;;;;2.90;74.58;98346.25;1739727;80;21194;-68
2022/02/19 08:56:17;;;;;;;;;;;;;;;2.89;74.72;98354.94;1762575;81;20114;-68
2022/02/19 08:58:45;;;;;;;;;;;;;;;2.89;74.72;98359.55;1762764;81;20111;-68
2022/02/19 09:01:15;;;;;;;;;;;;;;;2.90;74.86;98357.90;1778341;80;20148;-68
2022/02/19 09:03:47;;;;;;;;;;;;;;;2.91;75.12;98342.44;1788073;80;20080;-69
2022/02/19 09:06:17;;;;;;;;;;;;;;;2.92;75.19;98333.20;1780423;80;20092;-69
2022/02/19 09:08:46;;;;;;;;;;;;;;;2.94;75.31;98346.72;1758974;80;20143;-69
2022/02/19 09:11:22;;;;;;;;;;;;;;;2.96;75.34;98369.47;1758853;80;20113;-70
2022/02/19 09:13:51;;;;;;;;;;;;;;;2.97;75.45;98395.48;1787514;80;20073;-69
2022/02/19 09:16:18;;;;;;;;;;;;;;;2.99;75.66;98383.80;1787804;80;20113;-68
2022/02/19 09:18:48;;;;;;;;;;;;;;;2.99;75.52;98354.78;1759528;80;20084;-68
2022/02/19 09:21:16;;;;;;;;;;;;;;;3.03;75.15;98369.10;1783701;80;20080;-67
2022/02/19 09:23:44;;;;;;;;;;;;;;;3.10;74.92;98331.57;1788221;80;20404;-67
2022/02/19 09:26:25;;;;;;;;;;;;;;;3.17;74.66;98367.25;1759101;80;20479;-67
2022/02/19 09:28:52;;;;;;;;;;;;;;;3.25;74.96;98355.73;1787554;80;20092;-68
2022/02/19 09:31:24;;;;;;;;;;;;;;;3.31;75.13;98342.34;1757273;80;21173;-68
2022/02/19 09:33:57;;;;;;;;;;;;;;;3.36;74.67;98346.87;1787845;80;20102;-67
2022/02/19 09:38:53;;;;;;;;;;;;;;;3.49;74.29;98350.14;1773675;80;20422;-68
2022/02/19 09:41:31;;;;;;;;;;;;;;;3.53;73.91;98324.02;1738055;81;20082;-67
2022/02/19 09:44:01;;;;;;;;;;;;;;;3.59;73.88;98317.40;1757727;80;21166;-69
2022/02/19 09:46:37;;;;;;;;;;;;;;;3.62;73.87;98291.02;1746877;80;20115;-69
2022/02/19 09:49:31;;;;;;;;;;;;;;;3.64;74.05;98276.05;1793399;80;20109;-69
2022/02/19 09:51:41;;;;;;;;;;;;;;;3.63;74.12;98249.20;1778944;80;20189;-69
2022/02/19 09:54:12;;;;;;;;;;;;;;;3.63;74.06;98236.99;1787160;80;20171;-69
2022/02/19 09:56:45;;;;;;;;;;;;;;;3.64;74.17;98246.74;1786321;80;21181;-68
2022/02/19 09:59:15;;;;;;;;;;;;;;;3.68;74.70;98252.38;1718388;82;20099;-69
2022/02/19 10:02:04;;;;;;;;;;;;;;;3.74;74.26;98266.90;1685397;83;20317;-69
2022/02/19 10:04:37;;;;;;;;;;;;;;;3.81;74.46;98276.80;1706389;83;20415;-69
2022/02/19 10:07:15;;;;;;;;;;;;;;;3.86;74.26;98284.84;1695281;84;20250;-68
2022/02/19 10:09:44;;;;;;;;;;;;;;;3.89;73.76;98291.03;1716059;83;21056;-68
2022/02/19 10:12:18;;;;;;;;;;;;;;;3.91;73.89;98306.46;1714325;83;20136;-68
2022/02/19 10:14:48;;;;;;;;;;;;;;;3.93;73.60;98310.23;1695419;84;20089;-69
2022/02/19 10:17:22;;;;;;;;;;;;;;;3.94;73.69;98341.16;1747331;80;20080;-69
2022/02/19 10:19:54;;;;;;;;;;;;;;;3.95;73.67;98332.45;1762130;80;20141;-69
2022/02/19 10:22:35;;;;;;;;;;;;;;;3.97;73.71;98342.47;1752736;80;21836;-68
2022/02/19 10:25:05;;;;;;;;;;;;;;;4.01;73.90;98312.24;1723416;82;20081;-70
2022/02/19 10:27:54;;;;;;;;;;;;;;;4.03;73.69;98337.73;1720161;83;20546;-69
2022/02/19 10:30:31;;;;;;;;;;;;;;;4.03;73.68;98358.11;1694266;84;20107;-75
2022/02/19 10:33:12;;;;;;;;;;;;;;;4.03;73.47;98342.62;1712436;83;20141;-67
2022/02/19 10:35:36;;;;;;;;;;;;;;;4.06;73.99;98337.91;1693214;83;21185;-66
2022/02/19 10:38:07;;;;;;;;;;;;;;;4.08;74.13;98368.84;1751060;82;21621;-67
2022/02/19 10:40:43;;;;;;;;;;;;;;;4.10;74.03;98362.00;1760629;80;20129;-71
2022/02/19 10:43:20;;;;;;;;;;;;;;;4.13;74.00;98347.02;1782014;80;20089;-72
2022/02/19 10:46:02;;;;;;;;;;;;;;;4.18;74.08;98349.07;1779595;80;20190;-70
2022/02/19 10:48:29;;;;;;;;;;;;;;;4.25;73.69;98339.16;1779092;80;21212;-73
2022/02/19 10:51:13;;;;;;;;;;;;;;;4.31;73.50;98339.30;1783102;80;20118;-72
2022/02/19 10:53:45;;;;;;;;;;;;;;;4.38;73.51;98336.98;1781715;80;20098;-72
2022/02/19 10:56:16;;;;;;;;;;;;;;;4.40;73.25;98342.91;1782804;80;20090;-71
2022/02/19 10:59:02;;;;;;;;;;;;;;;4.45;73.38;98335.21;1759045;80;20092;-72
2022/02/19 11:01:46;;;;;;;;;;;;;;;4.49;73.73;98341.64;1783615;80;21146;-73
2022/02/19 11:04:19;;;;;;;;;;;;;;;4.53;73.76;98348.89;1788905;80;20443;-69
2022/02/19 11:06:55;;;;;;;;;;;;;;;4.59;73.62;98349.58;1788204;80;20136;-71
2022/02/19 11:09:21;;;;;;;;;;;;;;;4.67;73.71;98361.61;1788176;80;20080;-71
2022/02/19 11:11:50;;;;;;;;;;;;;;;4.73;73.76;98360.39;1724170;82;20443;-70
2022/02/19 11:14:20;;;;;;;;;;;;;;;4.79;73.66;98362.69;1740959;82;21170;-72
2022/02/19 11:16:51;;;;;;;;;;;;;;;4.88;73.62;98341.02;1741505;82;20088;-69
2022/02/19 11:19:22;;;;;;;;;;;;;;;4.95;73.42;98350.36;1741305;82;20076;-68
2022/02/19 11:21:57;;;;;;;;;;;;;;;5.04;73.04;98323.23;1741381;82;20096;-69
2022/02/19 11:24:28;;;;;;;;;;;;;;;5.09;73.29;98328.55;1734524;82;20158;-70
2022/02/19 11:26:58;;;;;;;;;;;;;;;5.13;73.30;98328.17;1708589;84;21131;-69
2022/02/19 11:29:25;;;;;;;;;;;;;;;5.15;73.48;98345.55;1708552;84;20087;-68
2022/02/19 11:32:01;;;;;;;;;;;;;;;5.15;73.42;98332.75;1679639;84;20130;-68
2022/02/19 11:34:31;;;;;;;;;;;;;;;5.16;73.52;98352.59;1679547;84;20114;-69
2022/02/19 11:37:22;;;;;;;;;;;;;;;5.19;73.44;98351.98;1707802;84;20185;-69
2022/02/19 11:40:10;;;;;;;;;;;;;;;5.22;73.17;98363.02;1707941;84;21060;-69
2022/02/19 11:42:42;;;;;;;;;;;;;;;5.29;73.13;98341.63;1709006;84;20465;-68
2022/02/19 11:45:25;;;;;;;;;;;;;;;5.37;72.90;98319.66;1708881;84;20094;-68
2022/02/19 11:47:55;;;;;;;;;;;;;;;5.44;72.53;98311.86;1709088;84;20140;-68
2022/02/19 11:50:26;;;;;;;;;;;;;;;5.50;72.39;98302.45;1708795;84;20433;-68
2022/02/19 11:53:12;;;;;;;;;;;;;;;5.54;72.01;98327.13;1709067;84;21110;-69
2022/02/19 11:55:40;;;;;;;;;;;;;;;5.58;72.08;98307.69;1689815;84;20087;-69
2022/02/19 11:58:07;;;;;;;;;;;;;;;5.59;72.30;98319.63;1708752;84;20118;-69
2022/02/19 12:00:46;;;;;;;;;;;;;;;5.56;72.40;98331.14;1708884;82;20122;-68
2022/02/19 12:03:30;;;;;;;;;;;;;;;5.53;72.45;98335.05;1703349;84;20427;-68
2022/02/19 12:06:15;;;;;;;;;;;;;;;5.47;72.48;98350.70;1702693;84;21542;-68
2022/02/19 12:08:52;;;;;;;;;;;;;;;5.45;72.41;98344.77;1703193;84;20103;-68
2022/02/19 12:11:19;;;;;;;;;;;;;;;5.45;72.48;98353.48;1703309;84;20445;-68
2022/02/19 12:13:48;;;;;;;;;;;;;;;5.46;72.76;98364.06;1703197;84;20138;-69
2022/02/19 12:16:40;;;;;;;;;;;;;;;5.50;72.53;98360.16;1703230;84;20103;-68
2022/02/19 12:19:09;;;;;;;;;;;;;;;5.54;72.15;98357.06;1703372;84;21173;-69
2022/02/19 12:21:37;;;;;;;;;;;;;;;5.58;72.29;98364.30;1703397;84;20146;-68
2022/02/19 12:24:14;;;;;;;;;;;;;;;5.73;72.30;98361.74;1705655;83;20106;-69
2022/02/19 12:27:08;;;;;;;;;;;;;;;6.03;71.00;98352.52;1732670;83;20096;-68
2022/02/19 12:29:36;;;;;;;;;;;;;;;6.23;70.16;98364.20;1740596;82;20124;-68
2022/02/19 12:32:11;;;;;;;;;;;;;;;6.36;69.31;98348.27;1740375;82;21264;-69
2022/02/19 12:34:40;;;;;;;;;;;;;;;6.54;68.08;98348.55;1732989;83;20120;-69
2022/02/19 12:37:12;;;;;;;;;;;;;;;6.69;67.80;98356.03;1738779;82;20108;-69
2022/02/19 12:39:48;;;;;;;;;;;;;;;6.83;67.39;98345.78;1740355;82;20076;-69
2022/02/19 12:42:20;;;;;;;;;;;;;;;6.83;66.71;98349.88;1738277;82;20120;-69
2022/02/19 12:44:48;;;;;;;;;;;;;;;6.78;67.06;98335.83;1740553;82;21712;-69
2022/02/19 12:47:15;;;;;;;;;;;;;;;7.01;66.88;98352.02;1740220;82;20113;-69
2022/02/19 12:49:42;;;;;;;;;;;;;;;7.32;65.99;98337.64;1740529;82;20112;-70
2022/02/19 12:52:08;;;;;;;;;;;;;;;7.60;64.54;98342.13;1713243;82;20180;-69
2022/02/19 12:54:38;;;;;;;;;;;;;;;7.62;63.61;98338.52;1732701;83;20443;-69
2022/02/19 12:57:05;;;;;;;;;;;;;;;7.44;64.17;98331.52;1740235;82;21851;-69
2022/02/19 12:59:33;;;;;;;;;;;;;;;7.23;64.30;98321.83;1732589;83;20101;-69
2022/02/19 13:02:05;;;;;;;;;;;;;;;7.06;64.61;98329.47;1725840;83;20097;-69
2022/02/19 13:04:37;;;;;;;;;;;;;;;6.95;65.54;98327.62;1716480;83;20117;-69
2022/02/19 13:07:05;;;;;;;;;;;;;;;6.98;65.79;98324.81;1716765;83;20093;-70
2022/02/19 13:09:31;;;;;;;;;;;;;;;7.31;65.42;98346.95;1716878;83;21776;-69
2022/02/19 13:11:59;;;;;;;;;;;;;;;7.62;64.15;98339.31;1734651;82;20447;-69
2022/02/19 13:14:27;;;;;;;;;;;;;;;7.98;63.02;98344.91;1734985;82;20302;-69
2022/02/19 13:17:08;;;;;;;;;;;;;;;8.44;62.36;98329.02;1734461;82;20096;-69
2022/02/19 13:19:36;;;;;;;;;;;;;;;8.71;60.31;98330.98;1705708;84;20102;-68
2022/02/19 13:22:25;;;;;;;;;;;;;;;8.72;60.34;98338.06;1705421;84;21799;-69
2022/02/19 13:24:52;;;;;;;;;;;;;;;8.87;59.90;98343.75;1705591;81;20119;-68
2022/02/19 13:27:23;;;;;;;;;;;;;;;8.93;58.79;98347.09;1704872;84;20103;-68
2022/02/19 13:29:53;;;;;;;;;;;;;;;8.81;58.54;98345.08;1734765;82;20116;-68
2022/02/19 13:32:28;;;;;;;;;;;;;;;8.79;58.83;98358.86;1734935;82;20440;-68